Meteo Giornale » Osservazioni meteo Svizzera » Locarno

ore: 11:50 - Osservazioni Meteo Locarno
Lat. 46° 10' N Lon. 8° 53' E Alt. 600 metri s.l.m.

poco_nuvoloso Europe/Zurich

25 °C

Poco Nuvoloso

Temp. 24 Ore

13 °C

26 °C

Nord

5.5 Km/h

Dew point 10 °C

Umidità 38 %

Visibilità  10 Km

Il sole sorge alle ore 05:57

Il sole tramonta alle ore 21:04

Data e Ora Cielo e Fenomeni T °C DP °C Um. % Pres. hPa Vis. km Vento km/h
Oggi h: 11:50 poco_nuvoloso Poco Nuvoloso 25 10 38 1007 10 N 5.5
Oggi h: 10:50 poco_nuvoloso Poco Nuvoloso 23 11 46 1007 10 E 11.1
Oggi h: 09:50 poco_nuvoloso Poco Nuvoloso 21 11 52 1007 10 E 14.8
Oggi h: 07:50 sereno Sereno 18 10 59 1008 10 NE 11.1
Oggi h: 05:50 sereno Sereno 14 9 71 1007 10 E/NE 7.4
Oggi h: 04:50 sereno Sereno 13 10 81 1007 10 E/NE 7.4
Oggi h: 03:50 sereno Sereno 15 9 67 1008 10 NE 7.4
Oggi h: 02:50 sereno Sereno 15 10 72 1008 10 NE 9.3
Oggi h: 01:50 sereno Sereno 16 10 67 1008 10 NE 11.1
Oggi h: 00:50 sereno Sereno 20 8 45 1008 10 E 11.1
Ieri h: 23:50 sereno Sereno 19 8 48 1008 10 E 9.3
Ieri h: 22:50 sereno Sereno 23 5 31 1008 10 E 11.1
Ieri h: 21:50 poco_nuvoloso Poco Nuvoloso 23 7 35 1007 10 N 5.5
Ieri h: 20:50 poco_nuvoloso Poco Nuvoloso 25 7 31 1006 10 N 9.3
Ieri h: 19:50 poco_nuvoloso Poco Nuvoloso 26 7 29 1005 10 N/NO 11.1
Ieri h: 17:50 poco_nuvoloso Poco Nuvoloso 26 13 44 1004 10 E/SE 16.7
Ieri h: 16:50 nuvoloso Nuvoloso 25 14 50 1004 10 N 5.5
Ieri h: 15:50 nuvoloso Nuvoloso 25 18 65 1004 10 E 13
Ieri h: 14:50 poco_nuvoloso Poco Nuvoloso 24 18 69 1003 10 O/SO 9.3
Ieri h: 13:50 nuvoloso Nuvoloso 26 17 57 1004 10 E/SE 7.4
Ieri h: 12:50 nuvoloso Nuvoloso 24 17 64 1005 10 E 14.8